sensor_id;sensor_type;location;lat;lon;timestamp;pressure;altitude;pressure_sealevel;temperature;humidity
9035;BME280;4552;43.422;24.592;2023-09-12T00:01:49;99948.09;;;16.57;72.99
9035;BME280;4552;43.422;24.592;2023-09-12T00:04:15;99955.63;;;16.43;73.71
9035;BME280;4552;43.422;24.592;2023-09-12T00:06:43;99951.84;;;16.52;72.89
9035;BME280;4552;43.422;24.592;2023-09-12T00:09:09;99952.41;;;16.35;73.82
9035;BME280;4552;43.422;24.592;2023-09-12T00:11:37;99937.94;;;16.22;74.69
9035;BME280;4552;43.422;24.592;2023-09-12T00:14:04;99954.19;;;16.12;74.19
9035;BME280;4552;43.422;24.592;2023-09-12T00:16:31;99953.09;;;16.17;74.07
9035;BME280;4552;43.422;24.592;2023-09-12T00:18:59;99946.47;;;16.06;74.49
9035;BME280;4552;43.422;24.592;2023-09-12T00:21:26;99960.75;;;16.00;74.93
9035;BME280;4552;43.422;24.592;2023-09-12T00:24:03;99948.41;;;16.01;74.68
9035;BME280;4552;43.422;24.592;2023-09-12T00:26:30;99947.44;;;16.03;74.45
9035;BME280;4552;43.422;24.592;2023-09-12T00:28:57;99957.41;;;15.95;74.93
9035;BME280;4552;43.422;24.592;2023-09-12T00:31:24;99946.16;;;15.90;75.04
9035;BME280;4552;43.422;24.592;2023-09-12T00:33:51;99944.13;;;15.98;75.56
9035;BME280;4552;43.422;24.592;2023-09-12T00:36:19;99949.63;;;15.92;75.71
9035;BME280;4552;43.422;24.592;2023-09-12T00:59:04;99946.25;;;15.87;79.68
9035;BME280;4552;43.422;24.592;2023-09-12T01:01:32;99949.72;;;15.89;79.92
9035;BME280;4552;43.422;24.592;2023-09-12T01:04:01;99940.75;;;15.93;80.19
9035;BME280;4552;43.422;24.592;2023-09-12T01:06:29;99952.47;;;15.86;79.87
9035;BME280;4552;43.422;24.592;2023-09-12T01:08:58;99951.75;;;15.81;80.83
9035;BME280;4552;43.422;24.592;2023-09-12T01:11:29;99956.00;;;15.85;81.15
9035;BME280;4552;43.422;24.592;2023-09-12T01:14:04;99941.19;;;15.81;81.23
9035;BME280;4552;43.422;24.592;2023-09-12T01:16:31;99957.03;;;15.81;81.21
9035;BME280;4552;43.422;24.592;2023-09-12T01:18:58;99957.41;;;15.71;81.92
9035;BME280;4552;43.422;24.592;2023-09-12T01:21:42;99950.44;;;15.68;82.57
9035;BME280;4552;43.422;24.592;2023-09-12T01:24:52;99964.25;;;15.76;82.16
9035;BME280;4552;43.422;24.592;2023-09-12T01:27:51;99957.13;;;15.78;82.13
9035;BME280;4552;43.422;24.592;2023-09-12T01:30:20;99960.03;;;15.71;81.80
9035;BME280;4552;43.422;24.592;2023-09-12T01:32:48;99953.34;;;15.60;82.79
9035;BME280;4552;43.422;24.592;2023-09-12T01:35:15;99954.25;;;15.59;82.46
9035;BME280;4552;43.422;24.592;2023-09-12T01:44:27;99959.94;;;15.47;82.09
9035;BME280;4552;43.422;24.592;2023-09-12T01:46:57;99965.38;;;15.43;82.86
9035;BME280;4552;43.422;24.592;2023-09-12T01:49:24;99954.53;;;15.52;81.98
9035;BME280;4552;43.422;24.592;2023-09-12T01:58:25;99952.28;;;15.66;81.74
9035;BME280;4552;43.422;24.592;2023-09-12T02:00:54;99947.75;;;15.70;81.31
9035;BME280;4552;43.422;24.592;2023-09-12T02:03:21;99947.63;;;15.74;80.36
9035;BME280;4552;43.422;24.592;2023-09-12T02:05:48;99959.56;;;15.84;81.27
9035;BME280;4552;43.422;24.592;2023-09-12T02:08:15;99954.81;;;15.69;82.17
9035;BME280;4552;43.422;24.592;2023-09-12T02:10:42;99966.97;;;15.73;81.76
9035;BME280;4552;43.422;24.592;2023-09-12T02:13:09;99958.66;;;15.59;81.79
9035;BME280;4552;43.422;24.592;2023-09-12T02:15:36;99962.13;;;15.61;82.48
9035;BME280;4552;43.422;24.592;2023-09-12T02:18:05;99960.00;;;15.72;82.00
9035;BME280;4552;43.422;24.592;2023-09-12T02:20:32;99960.28;;;15.89;80.35
9035;BME280;4552;43.422;24.592;2023-09-12T02:22:59;99961.06;;;15.91;81.01
9035;BME280;4552;43.422;24.592;2023-09-12T02:25:26;99951.25;;;15.70;81.39
9035;BME280;4552;43.422;24.592;2023-09-12T02:27:53;99956.22;;;15.53;82.92
9035;BME280;4552;43.422;24.592;2023-09-12T02:30:20;99963.47;;;15.48;83.22
9035;BME280;4552;43.422;24.592;2023-09-12T02:32:47;99963.66;;;15.42;84.20
9035;BME280;4552;43.422;24.592;2023-09-12T02:35:17;99957.94;;;15.28;84.12
9035;BME280;4552;43.422;24.592;2023-09-12T02:37:59;99957.63;;;15.37;83.76
9035;BME280;4552;43.422;24.592;2023-09-12T02:40:26;99961.41;;;15.28;83.54
9035;BME280;4552;43.422;24.592;2023-09-12T02:43:01;99954.78;;;15.17;84.07
9035;BME280;4552;43.422;24.592;2023-09-12T02:45:28;99948.88;;;15.09;84.22
9035;BME280;4552;43.422;24.592;2023-09-12T02:47:55;99953.91;;;15.16;84.69
9035;BME280;4552;43.422;24.592;2023-09-12T02:50:26;99961.66;;;15.21;83.77
9035;BME280;4552;43.422;24.592;2023-09-12T03:30:39;99965.28;;;14.62;89.03
9035;BME280;4552;43.422;24.592;2023-09-12T03:33:06;99967.25;;;14.54;89.38
9035;BME280;4552;43.422;24.592;2023-09-12T03:35:33;99964.44;;;14.60;87.99
9035;BME280;4552;43.422;24.592;2023-09-12T03:38:00;99963.28;;;14.41;87.85
9035;BME280;4552;43.422;24.592;2023-09-12T03:40:28;99971.22;;;14.39;89.38
9035;BME280;4552;43.422;24.592;2023-09-12T03:42:56;99967.84;;;14.34;90.44
9035;BME280;4552;43.422;24.592;2023-09-12T03:45:24;99966.78;;;14.40;89.69
9035;BME280;4552;43.422;24.592;2023-09-12T03:47:53;99971.03;;;14.45;88.81
9035;BME280;4552;43.422;24.592;2023-09-12T03:50:20;99978.13;;;14.43;88.87
9035;BME280;4552;43.422;24.592;2023-09-12T03:52:47;99974.59;;;14.43;88.41
9035;BME280;4552;43.422;24.592;2023-09-12T03:55:14;99967.50;;;14.46;88.46
9035;BME280;4552;43.422;24.592;2023-09-12T03:57:41;99965.09;;;14.39;88.88
9035;BME280;4552;43.422;24.592;2023-09-12T04:00:09;99971.97;;;14.43;88.80
9035;BME280;4552;43.422;24.592;2023-09-12T04:02:36;99973.53;;;14.50;89.15
9035;BME280;4552;43.422;24.592;2023-09-12T04:05:04;99977.19;;;14.46;89.54
9035;BME280;4552;43.422;24.592;2023-09-12T04:44:36;99993.78;;;15.87;86.16
9035;BME280;4552;43.422;24.592;2023-09-12T04:47:03;99987.53;;;16.14;83.49
9035;BME280;4552;43.422;24.592;2023-09-12T04:49:30;99981.47;;;16.35;82.61
9035;BME280;4552;43.422;24.592;2023-09-12T04:51:59;99983.00;;;16.42;81.68
9035;BME280;4552;43.422;24.592;2023-09-12T04:54:26;99993.97;;;16.56;81.82
9035;BME280;4552;43.422;24.592;2023-09-12T04:56:53;99997.31;;;17.06;79.95
9035;BME280;4552;43.422;24.592;2023-09-12T04:59:20;100001.41;;;17.58;76.66
9035;BME280;4552;43.422;24.592;2023-09-12T05:01:51;100007.19;;;17.67;76.04
9035;BME280;4552;43.422;24.592;2023-09-12T05:04:18;100008.13;;;18.08;73.96
9035;BME280;4552;43.422;24.592;2023-09-12T05:47:16;100020.09;;;20.37;58.56
9035;BME280;4552;43.422;24.592;2023-09-12T05:49:57;100017.56;;;20.51;58.92
9035;BME280;4552;43.422;24.592;2023-09-12T06:12:41;100025.28;;;21.06;57.25
9035;BME280;4552;43.422;24.592;2023-09-12T06:15:09;100021.63;;;21.24;56.86
9035;BME280;4552;43.422;24.592;2023-09-12T06:17:36;100037.00;;;21.34;55.94
9035;BME280;4552;43.422;24.592;2023-09-12T06:20:04;100027.91;;;21.23;55.04
9035;BME280;4552;43.422;24.592;2023-09-12T06:36:29;100048.63;;;22.09;53.45
9035;BME280;4552;43.422;24.592;2023-09-12T06:38:56;100048.72;;;22.08;52.61
9035;BME280;4552;43.422;24.592;2023-09-12T06:41:30;100052.59;;;22.02;52.90
9035;BME280;4552;43.422;24.592;2023-09-12T06:43:57;100049.72;;;21.76;53.59
9035;BME280;4552;43.422;24.592;2023-09-12T06:46:24;100049.72;;;21.76;52.94
9035;BME280;4552;43.422;24.592;2023-09-12T06:48:51;100048.56;;;21.49;53.22
9035;BME280;4552;43.422;24.592;2023-09-12T06:51:25;100056.81;;;21.60;53.90
9035;BME280;4552;43.422;24.592;2023-09-12T06:54:00;100051.44;;;21.77;53.46
9035;BME280;4552;43.422;24.592;2023-09-12T06:56:27;100056.13;;;21.72;53.27
9035;BME280;4552;43.422;24.592;2023-09-12T06:58:54;100048.00;;;21.59;53.28
9035;BME280;4552;43.422;24.592;2023-09-12T07:01:25;100057.59;;;21.62;53.52
9035;BME280;4552;43.422;24.592;2023-09-12T07:03:55;100068.38;;;21.76;52.88
9035;BME280;4552;43.422;24.592;2023-09-12T07:06:28;100060.22;;;21.79;53.08
9035;BME280;4552;43.422;24.592;2023-09-12T07:09:14;100061.19;;;22.07;52.09
9035;BME280;4552;43.422;24.592;2023-09-12T07:11:44;100063.03;;;22.21;51.48
9035;BME280;4552;43.422;24.592;2023-09-12T07:14:11;100053.88;;;22.11;51.30
9035;BME280;4552;43.422;24.592;2023-09-12T07:16:38;100064.59;;;22.25;50.91
9035;BME280;4552;43.422;24.592;2023-09-12T07:19:06;100072.78;;;22.36;50.48
9035;BME280;4552;43.422;24.592;2023-09-12T07:21:33;100071.41;;;22.45;50.73
9035;BME280;4552;43.422;24.592;2023-09-12T07:24:05;100078.97;;;22.52;50.11
9035;BME280;4552;43.422;24.592;2023-09-12T07:26:34;100073.84;;;22.63;50.64
9035;BME280;4552;43.422;24.592;2023-09-12T07:29:19;100080.47;;;22.86;50.21
9035;BME280;4552;43.422;24.592;2023-09-12T07:31:46;100064.16;;;23.04;49.65
9035;BME280;4552;43.422;24.592;2023-09-12T07:34:32;100074.28;;;23.27;49.02
9035;BME280;4552;43.422;24.592;2023-09-12T07:37:17;100066.06;;;23.44;49.01
9035;BME280;4552;43.422;24.592;2023-09-12T07:39:44;100074.22;;;23.55;48.58
9035;BME280;4552;43.422;24.592;2023-09-12T07:42:13;100073.50;;;23.53;48.37
9035;BME280;4552;43.422;24.592;2023-09-12T07:44:40;100077.13;;;23.79;47.36
9035;BME280;4552;43.422;24.592;2023-09-12T07:47:08;100080.19;;;23.87;47.08
9035;BME280;4552;43.422;24.592;2023-09-12T07:49:35;100074.69;;;24.03;46.74
9035;BME280;4552;43.422;24.592;2023-09-12T07:52:02;100076.63;;;24.01;45.92
9035;BME280;4552;43.422;24.592;2023-09-12T08:01:14;100067.94;;;24.49;44.62
9035;BME280;4552;43.422;24.592;2023-09-12T08:03:42;100065.78;;;24.68;42.91
9035;BME280;4552;43.422;24.592;2023-09-12T08:06:12;100070.59;;;24.88;43.40
9035;BME280;4552;43.422;24.592;2023-09-12T08:12:02;100056.50;;;25.22;42.95
9035;BME280;4552;43.422;24.592;2023-09-12T08:14:29;100068.41;;;25.18;41.27
9035;BME280;4552;43.422;24.592;2023-09-12T08:16:58;100066.28;;;25.23;41.01
9035;BME280;4552;43.422;24.592;2023-09-12T08:19:46;100066.09;;;25.62;40.93
9035;BME280;4552;43.422;24.592;2023-09-12T08:22:14;100058.59;;;25.67;40.27
9035;BME280;4552;43.422;24.592;2023-09-12T08:24:44;100063.72;;;25.94;39.94
9035;BME280;4552;43.422;24.592;2023-09-12T08:27:11;100062.88;;;25.93;39.30
9035;BME280;4552;43.422;24.592;2023-09-12T08:29:41;100058.97;;;25.97;39.38
9035;BME280;4552;43.422;24.592;2023-09-12T08:32:11;100052.59;;;26.11;39.23
9035;BME280;4552;43.422;24.592;2023-09-12T08:34:38;100058.84;;;26.11;38.73
9035;BME280;4552;43.422;24.592;2023-09-12T08:37:05;100052.00;;;26.07;38.53
9035;BME280;4552;43.422;24.592;2023-09-12T08:43:04;100047.50;;;26.53;37.67
9035;BME280;4552;43.422;24.592;2023-09-12T08:45:32;100040.38;;;26.65;37.55
9035;BME280;4552;43.422;24.592;2023-09-12T08:48:03;100044.28;;;26.72;37.06
9035;BME280;4552;43.422;24.592;2023-09-12T08:50:34;100051.88;;;26.89;37.44
9035;BME280;4552;43.422;24.592;2023-09-12T08:53:15;100043.69;;;27.01;37.84
9035;BME280;4552;43.422;24.592;2023-09-12T08:55:46;100033.19;;;27.09;36.85
9035;BME280;4552;43.422;24.592;2023-09-12T08:58:13;100041.38;;;27.19;36.77
9035;BME280;4552;43.422;24.592;2023-09-12T09:00:42;100036.72;;;27.21;36.85
9035;BME280;4552;43.422;24.592;2023-09-12T09:03:11;100054.22;;;27.38;37.36
9035;BME280;4552;43.422;24.592;2023-09-12T09:05:40;100042.81;;;27.67;36.54
9035;BME280;4552;43.422;24.592;2023-09-12T09:08:10;100033.38;;;27.73;36.10
9035;BME280;4552;43.422;24.592;2023-09-12T09:10:38;100037.22;;;28.02;35.49
9035;BME280;4552;43.422;24.592;2023-09-12T09:13:05;100022.31;;;27.98;34.84
9035;BME280;4552;43.422;24.592;2023-09-12T09:16:12;100035.78;;;27.98;34.87
9035;BME280;4552;43.422;24.592;2023-09-12T09:19:09;100020.00;;;27.82;35.19
9035;BME280;4552;43.422;24.592;2023-09-12T09:21:38;100027.09;;;27.83;34.83
9035;BME280;4552;43.422;24.592;2023-09-12T09:24:08;100022.09;;;27.90;34.88
9035;BME280;4552;43.422;24.592;2023-09-12T09:26:45;100023.78;;;27.91;35.07
9035;BME280;4552;43.422;24.592;2023-09-12T09:29:14;100026.44;;;28.02;34.43
9035;BME280;4552;43.422;24.592;2023-09-12T09:31:42;100022.03;;;28.12;33.97
9035;BME280;4552;43.422;24.592;2023-09-12T09:34:15;100007.63;;;28.43;33.34
9035;BME280;4552;43.422;24.592;2023-09-12T09:36:48;100014.69;;;28.55;33.37
9035;BME280;4552;43.422;24.592;2023-09-12T09:42:37;100011.44;;;28.40;32.96
9035;BME280;4552;43.422;24.592;2023-09-12T09:45:05;100014.94;;;28.52;32.71
9035;BME280;4552;43.422;24.592;2023-09-12T09:47:33;100013.44;;;28.59;33.01
9035;BME280;4552;43.422;24.592;2023-09-12T09:50:18;100017.50;;;28.53;33.17
9035;BME280;4552;43.422;24.592;2023-09-12T10:16:28;99999.03;;;29.00;32.95
9035;BME280;4552;43.422;24.592;2023-09-12T10:19:15;99996.84;;;28.84;33.45
9035;BME280;4552;43.422;24.592;2023-09-12T10:21:48;99999.75;;;29.02;33.65
9035;BME280;4552;43.422;24.592;2023-09-12T10:24:16;100005.25;;;29.11;33.07
9035;BME280;4552;43.422;24.592;2023-09-12T10:26:59;99986.34;;;29.11;32.06
9035;BME280;4552;43.422;24.592;2023-09-12T10:29:27;99989.13;;;29.00;32.60
9035;BME280;4552;43.422;24.592;2023-09-12T10:31:56;99983.69;;;28.91;32.87
9035;BME280;4552;43.422;24.592;2023-09-12T10:34:30;99992.81;;;28.99;32.86
9035;BME280;4552;43.422;24.592;2023-09-12T10:37:29;99982.44;;;29.25;32.07
9035;BME280;4552;43.422;24.592;2023-09-12T10:46:52;99988.72;;;29.44;33.06
9035;BME280;4552;43.422;24.592;2023-09-12T10:49:23;99982.47;;;29.34;31.83
9035;BME280;4552;43.422;24.592;2023-09-12T10:51:51;99974.28;;;29.15;31.36
9035;BME280;4552;43.422;24.592;2023-09-12T10:54:23;99983.69;;;29.21;31.63
9035;BME280;4552;43.422;24.592;2023-09-12T10:57:02;99975.88;;;29.27;31.84
9035;BME280;4552;43.422;24.592;2023-09-12T10:59:29;99960.53;;;29.18;31.08
9035;BME280;4552;43.422;24.592;2023-09-12T11:02:27;99972.34;;;29.27;31.95
9035;BME280;4552;43.422;24.592;2023-09-12T11:05:08;99963.97;;;29.39;31.60
9035;BME280;4552;43.422;24.592;2023-09-12T11:51:49;99931.00;;;29.85;30.55
9035;BME280;4552;43.422;24.592;2023-09-12T12:01:00;99917.63;;;29.64;31.01
9035;BME280;4552;43.422;24.592;2023-09-12T12:03:28;99910.91;;;29.59;30.96
9035;BME280;4552;43.422;24.592;2023-09-12T12:06:04;99923.13;;;29.91;31.22
9035;BME280;4552;43.422;24.592;2023-09-12T12:11:55;99913.16;;;30.11;30.42
9035;BME280;4552;43.422;24.592;2023-09-12T12:14:26;99908.91;;;30.27;30.07
9035;BME280;4552;43.422;24.592;2023-09-12T12:16:53;99907.75;;;30.40;30.74
9035;BME280;4552;43.422;24.592;2023-09-12T12:19:20;99907.91;;;30.28;30.82
9035;BME280;4552;43.422;24.592;2023-09-12T12:21:56;99898.69;;;30.21;30.32
9035;BME280;4552;43.422;24.592;2023-09-12T12:24:23;99890.44;;;30.13;29.88
9035;BME280;4552;43.422;24.592;2023-09-12T12:27:03;99895.53;;;30.16;30.17
9035;BME280;4552;43.422;24.592;2023-09-12T12:29:30;99896.97;;;30.20;30.34
9035;BME280;4552;43.422;24.592;2023-09-12T12:32:17;99888.84;;;30.11;29.50
9035;BME280;4552;43.422;24.592;2023-09-12T12:34:48;99888.69;;;30.12;29.47
9035;BME280;4552;43.422;24.592;2023-09-12T12:37:15;99896.00;;;30.02;30.19
9035;BME280;4552;43.422;24.592;2023-09-12T12:39:42;99894.00;;;30.04;29.61
9035;BME280;4552;43.422;24.592;2023-09-12T12:42:14;99877.59;;;30.15;29.27
9035;BME280;4552;43.422;24.592;2023-09-12T12:44:41;99893.56;;;30.18;30.26
9035;BME280;4552;43.422;24.592;2023-09-12T12:47:08;99888.41;;;30.15;30.13
9035;BME280;4552;43.422;24.592;2023-09-12T12:49:38;99858.19;;;30.02;29.05
9035;BME280;4552;43.422;24.592;2023-09-12T12:52:30;99867.69;;;30.06;29.04
9035;BME280;4552;43.422;24.592;2023-09-12T13:01:43;99861.66;;;30.68;28.76
9035;BME280;4552;43.422;24.592;2023-09-12T13:04:24;99868.94;;;30.31;28.76
9035;BME280;4552;43.422;24.592;2023-09-12T13:06:51;99876.94;;;30.60;28.85
9035;BME280;4552;43.422;24.592;2023-09-12T13:29:30;99884.09;;;30.42;29.25
9035;BME280;4552;43.422;24.592;2023-09-12T13:31:57;99881.81;;;30.47;29.20
9035;BME280;4552;43.422;24.592;2023-09-12T13:34:24;99892.06;;;30.43;30.00
9035;BME280;4552;43.422;24.592;2023-09-12T13:36:51;99877.13;;;30.49;29.23
9035;BME280;4552;43.422;24.592;2023-09-12T13:46:06;99873.84;;;30.45;29.09
9035;BME280;4552;43.422;24.592;2023-09-12T13:48:35;99872.13;;;30.54;28.56
9035;BME280;4552;43.422;24.592;2023-09-12T13:51:11;99880.16;;;30.36;28.95
9035;BME280;4552;43.422;24.592;2023-09-12T13:53:38;99842.66;;;30.23;28.13
9035;BME280;4552;43.422;24.592;2023-09-12T13:56:06;99849.72;;;30.34;28.20
9035;BME280;4552;43.422;24.592;2023-09-12T13:58:34;99862.59;;;30.50;28.97
9035;BME280;4552;43.422;24.592;2023-09-12T14:01:01;99867.47;;;30.73;29.50
9035;BME280;4552;43.422;24.592;2023-09-12T14:03:53;99866.63;;;30.82;29.00
9035;BME280;4552;43.422;24.592;2023-09-12T14:06:24;99866.25;;;30.95;28.77
9035;BME280;4552;43.422;24.592;2023-09-12T14:08:53;99862.53;;;30.69;29.32
9035;BME280;4552;43.422;24.592;2023-09-12T14:11:20;99855.25;;;30.69;28.44
9035;BME280;4552;43.422;24.592;2023-09-12T14:13:47;99852.84;;;30.76;28.55
9035;BME280;4552;43.422;24.592;2023-09-12T14:16:14;99837.88;;;30.81;28.01
9035;BME280;4552;43.422;24.592;2023-09-12T14:18:41;99853.84;;;30.65;28.33
9035;BME280;4552;43.422;24.592;2023-09-12T14:21:10;99851.25;;;30.83;28.43
9035;BME280;4552;43.422;24.592;2023-09-12T14:33:59;99858.25;;;30.39;29.55
9035;BME280;4552;43.422;24.592;2023-09-12T14:36:29;99872.66;;;30.20;30.23
9035;BME280;4552;43.422;24.592;2023-09-12T14:38:56;99864.06;;;30.44;29.29
9035;BME280;4552;43.422;24.592;2023-09-12T14:41:23;99868.09;;;30.31;29.49
9035;BME280;4552;43.422;24.592;2023-09-12T14:43:51;99861.25;;;30.36;29.38
9035;BME280;4552;43.422;24.592;2023-09-12T14:46:18;99844.81;;;30.57;29.12
9035;BME280;4552;43.422;24.592;2023-09-12T14:48:44;99843.69;;;30.50;29.25
9035;BME280;4552;43.422;24.592;2023-09-12T14:51:23;99852.03;;;30.29;29.00
9035;BME280;4552;43.422;24.592;2023-09-12T15:14:06;99853.44;;;30.14;29.74
9035;BME280;4552;43.422;24.592;2023-09-12T15:16:36;99854.06;;;29.98;29.94
9035;BME280;4552;43.422;24.592;2023-09-12T15:19:04;99846.28;;;29.76;30.14
9035;BME280;4552;43.422;24.592;2023-09-12T15:21:33;99850.06;;;30.02;29.97
9035;BME280;4552;43.422;24.592;2023-09-12T15:27:37;99831.47;;;29.99;28.43
9035;BME280;4552;43.422;24.592;2023-09-12T15:30:07;99840.81;;;30.05;28.71
9035;BME280;4552;43.422;24.592;2023-09-12T15:32:37;99829.50;;;29.82;29.21
9035;BME280;4552;43.422;24.592;2023-09-12T15:35:05;99851.53;;;29.78;29.67
9035;BME280;4552;43.422;24.592;2023-09-12T15:37:33;99847.16;;;29.86;29.53
9035;BME280;4552;43.422;24.592;2023-09-12T15:40:02;99865.72;;;29.99;30.12
9035;BME280;4552;43.422;24.592;2023-09-12T15:42:30;99867.81;;;30.14;30.32
9035;BME280;4552;43.422;24.592;2023-09-12T15:45:00;99860.88;;;29.93;30.16
9035;BME280;4552;43.422;24.592;2023-09-12T15:47:34;99866.28;;;29.93;31.29
9035;BME280;4552;43.422;24.592;2023-09-12T15:50:01;99854.81;;;29.72;30.49
9035;BME280;4552;43.422;24.592;2023-09-12T15:52:31;99854.06;;;29.98;30.65
9035;BME280;4552;43.422;24.592;2023-09-12T15:58:30;99851.25;;;29.90;30.39
9035;BME280;4552;43.422;24.592;2023-09-12T16:00:57;99858.97;;;29.66;31.31
9035;BME280;4552;43.422;24.592;2023-09-12T16:03:31;99844.72;;;29.55;31.45
9035;BME280;4552;43.422;24.592;2023-09-12T16:05:58;99858.63;;;29.60;31.53
9035;BME280;4552;43.422;24.592;2023-09-12T16:39:00;99850.25;;;28.15;35.28
9035;BME280;4552;43.422;24.592;2023-09-12T16:41:28;99851.31;;;27.94;37.10
9035;BME280;4552;43.422;24.592;2023-09-12T16:44:21;99852.44;;;27.60;38.49
9035;BME280;4552;43.422;24.592;2023-09-12T16:46:48;99851.75;;;27.47;38.73
9035;BME280;4552;43.422;24.592;2023-09-12T16:49:15;99846.72;;;27.22;39.32
9035;BME280;4552;43.422;24.592;2023-09-12T16:51:43;99838.06;;;27.07;39.87
9035;BME280;4552;43.422;24.592;2023-09-12T16:54:12;99854.16;;;26.75;41.36
9035;BME280;4552;43.422;24.592;2023-09-12T17:12:37;99852.06;;;25.67;44.07
9035;BME280;4552;43.422;24.592;2023-09-12T17:15:18;99862.88;;;25.55;43.65
9035;BME280;4552;43.422;24.592;2023-09-12T17:17:46;99868.41;;;25.64;44.16
9035;BME280;4552;43.422;24.592;2023-09-12T17:20:15;99866.66;;;25.63;43.82
9035;BME280;4552;43.422;24.592;2023-09-12T17:22:42;99869.56;;;25.49;44.40
9035;BME280;4552;43.422;24.592;2023-09-12T17:31:54;99870.50;;;25.01;45.58
9035;BME280;4552;43.422;24.592;2023-09-12T17:34:37;99871.19;;;24.92;46.40
9035;BME280;4552;43.422;24.592;2023-09-12T17:37:05;99882.66;;;24.94;44.81
9035;BME280;4552;43.422;24.592;2023-09-12T17:53:02;99886.41;;;24.05;48.85
9035;BME280;4552;43.422;24.592;2023-09-12T17:59:06;99894.69;;;23.88;49.32
9035;BME280;4552;43.422;24.592;2023-09-12T18:01:33;99902.59;;;23.89;49.70
9035;BME280;4552;43.422;24.592;2023-09-12T18:04:03;99898.50;;;23.71;49.92
9035;BME280;4552;43.422;24.592;2023-09-12T18:06:30;99894.22;;;23.69;50.04
9035;BME280;4552;43.422;24.592;2023-09-12T18:09:01;99902.13;;;23.70;50.09
9035;BME280;4552;43.422;24.592;2023-09-12T18:11:30;99911.53;;;23.63;49.92
9035;BME280;4552;43.422;24.592;2023-09-12T18:13:57;99896.75;;;23.45;50.59
9035;BME280;4552;43.422;24.592;2023-09-12T18:16:24;99904.19;;;23.40;50.35
9035;BME280;4552;43.422;24.592;2023-09-12T18:18:51;99906.47;;;23.46;50.56
9035;BME280;4552;43.422;24.592;2023-09-12T18:21:18;99903.75;;;23.34;50.62
9035;BME280;4552;43.422;24.592;2023-09-12T18:23:45;99903.38;;;23.52;50.56
9035;BME280;4552;43.422;24.592;2023-09-12T18:29:37;99910.16;;;23.31;50.49
9035;BME280;4552;43.422;24.592;2023-09-12T18:32:04;99902.63;;;23.24;51.15
9035;BME280;4552;43.422;24.592;2023-09-12T18:34:31;99910.56;;;23.25;50.57
9035;BME280;4552;43.422;24.592;2023-09-12T18:36:58;99901.22;;;23.18;50.65
9035;BME280;4552;43.422;24.592;2023-09-12T18:39:25;99904.66;;;23.06;51.37
9035;BME280;4552;43.422;24.592;2023-09-12T18:51:59;99906.06;;;22.71;52.25
9035;BME280;4552;43.422;24.592;2023-09-12T18:54:26;99915.22;;;22.67;52.36
9035;BME280;4552;43.422;24.592;2023-09-12T18:56:57;99918.50;;;22.58;52.72
9035;BME280;4552;43.422;24.592;2023-09-12T18:59:29;99912.97;;;22.61;52.55
9035;BME280;4552;43.422;24.592;2023-09-12T19:01:56;99906.84;;;22.59;52.72
9035;BME280;4552;43.422;24.592;2023-09-12T19:04:24;99910.38;;;22.60;52.33
9035;BME280;4552;43.422;24.592;2023-09-12T19:06:56;99910.47;;;22.58;53.03
9035;BME280;4552;43.422;24.592;2023-09-12T19:09:25;99910.28;;;22.61;52.43
9035;BME280;4552;43.422;24.592;2023-09-12T19:15:34;99913.16;;;22.72;52.56
9035;BME280;4552;43.422;24.592;2023-09-12T19:18:02;99909.41;;;22.61;53.12
9035;BME280;4552;43.422;24.592;2023-09-12T19:20:39;99911.16;;;22.62;51.73
9035;BME280;4552;43.422;24.592;2023-09-12T19:23:06;99920.56;;;22.67;52.74
9035;BME280;4552;43.422;24.592;2023-09-12T19:25:38;99925.81;;;22.55;53.42
9035;BME280;4552;43.422;24.592;2023-09-12T19:28:17;99925.59;;;22.44;53.85
9035;BME280;4552;43.422;24.592;2023-09-12T19:30:44;99913.78;;;22.34;54.44
9035;BME280;4552;43.422;24.592;2023-09-12T19:33:11;99915.97;;;22.41;52.96
9035;BME280;4552;43.422;24.592;2023-09-12T19:36:02;99929.69;;;22.35;53.91
9035;BME280;4552;43.422;24.592;2023-09-12T19:38:48;99928.91;;;22.33;54.15
9035;BME280;4552;43.422;24.592;2023-09-12T19:48:06;99918.81;;;21.96;55.52
9035;BME280;4552;43.422;24.592;2023-09-12T19:50:36;99933.13;;;21.79;56.17
9035;BME280;4552;43.422;24.592;2023-09-12T19:53:07;99915.59;;;21.75;55.61
9035;BME280;4552;43.422;24.592;2023-09-12T19:55:35;99922.22;;;21.68;56.30
9035;BME280;4552;43.422;24.592;2023-09-12T19:58:02;99922.19;;;21.54;57.28
9035;BME280;4552;43.422;24.592;2023-09-12T20:00:29;99921.47;;;21.51;57.15
9035;BME280;4552;43.422;24.592;2023-09-12T20:03:23;99924.22;;;21.65;56.96
9035;BME280;4552;43.422;24.592;2023-09-12T20:06:04;99929.16;;;21.71;56.65
9035;BME280;4552;43.422;24.592;2023-09-12T20:08:31;99914.50;;;21.64;57.08
9035;BME280;4552;43.422;24.592;2023-09-12T20:54:43;99930.63;;;21.47;58.83
